sensor_id;sensor_type;location;lat;lon;timestamp;temperature;humidity
22850;DHT22;11591;44.792;10.358;2023-05-18T00:00:02;15.00;99.90
22850;DHT22;11591;44.792;10.358;2023-05-18T00:02:31;15.00;99.90
22850;DHT22;11591;44.792;10.358;2023-05-18T00:04:56;15.00;99.90
22850;DHT22;11591;44.792;10.358;2023-05-18T00:07:27;15.00;99.90
22850;DHT22;11591;44.792;10.358;2023-05-18T00:09:54;15.00;99.90
22850;DHT22;11591;44.792;10.358;2023-05-18T00:12:20;15.00;99.90
22850;DHT22;11591;44.792;10.358;2023-05-18T00:14:46;15.00;99.90
22850;DHT22;11591;44.792;10.358;2023-05-18T00:17:12;15.00;99.90
22850;DHT22;11591;44.792;10.358;2023-05-18T00:19:39;15.00;99.90
22850;DHT22;11591;44.792;10.358;2023-05-18T00:22:05;15.00;99.90
22850;DHT22;11591;44.792;10.358;2023-05-18T00:24:32;14.90;99.90
22850;DHT22;11591;44.792;10.358;2023-05-18T00:26:58;15.00;99.90
22850;DHT22;11591;44.792;10.358;2023-05-18T00:29:23;15.00;99.90
22850;DHT22;11591;44.792;10.358;2023-05-18T00:31:49;15.00;99.90
22850;DHT22;11591;44.792;10.358;2023-05-18T00:34:15;14.90;99.90
22850;DHT22;11591;44.792;10.358;2023-05-18T00:36:44;14.90;99.90
22850;DHT22;11591;44.792;10.358;2023-05-18T00:39:10;14.90;99.90
22850;DHT22;11591;44.792;10.358;2023-05-18T00:41:36;14.90;99.90
22850;DHT22;11591;44.792;10.358;2023-05-18T00:44:05;14.90;99.90
22850;DHT22;11591;44.792;10.358;2023-05-18T00:46:32;14.90;99.90
22850;DHT22;11591;44.792;10.358;2023-05-18T00:48:58;14.90;99.90
22850;DHT22;11591;44.792;10.358;2023-05-18T00:51:26;14.80;99.90
22850;DHT22;11591;44.792;10.358;2023-05-18T00:53:54;14.80;99.90
22850;DHT22;11591;44.792;10.358;2023-05-18T00:56:21;14.80;99.90
22850;DHT22;11591;44.792;10.358;2023-05-18T00:58:54;14.80;99.90
22850;DHT22;11591;44.792;10.358;2023-05-18T01:01:27;14.70;99.90
22850;DHT22;11591;44.792;10.358;2023-05-18T01:03:54;14.70;99.90
22850;DHT22;11591;44.792;10.358;2023-05-18T01:06:27;14.80;99.90
22850;DHT22;11591;44.792;10.358;2023-05-18T01:08:58;14.80;99.90
22850;DHT22;11591;44.792;10.358;2023-05-18T01:14:40;14.90;99.90
22850;DHT22;11591;44.792;10.358;2023-05-18T01:25:20;14.80;99.90
22850;DHT22;11591;44.792;10.358;2023-05-18T01:27:50;14.80;99.90
22850;DHT22;11591;44.792;10.358;2023-05-18T01:30:21;14.80;99.90
22850;DHT22;11591;44.792;10.358;2023-05-18T01:32:47;14.80;99.90
22850;DHT22;11591;44.792;10.358;2023-05-18T01:35:12;14.70;99.90
22850;DHT22;11591;44.792;10.358;2023-05-18T01:37:38;14.80;99.90
22850;DHT22;11591;44.792;10.358;2023-05-18T01:40:05;14.70;99.90
22850;DHT22;11591;44.792;10.358;2023-05-18T01:42:38;14.70;99.90
22850;DHT22;11591;44.792;10.358;2023-05-18T01:45:14;14.70;99.90
22850;DHT22;11591;44.792;10.358;2023-05-18T01:47:42;14.70;99.90
22850;DHT22;11591;44.792;10.358;2023-05-18T01:50:14;14.70;99.90
22850;DHT22;11591;44.792;10.358;2023-05-18T01:53:01;14.70;99.90
22850;DHT22;11591;44.792;10.358;2023-05-18T01:55:29;14.70;99.90
22850;DHT22;11591;44.792;10.358;2023-05-18T01:57:57;14.70;99.90
22850;DHT22;11591;44.792;10.358;2023-05-18T02:00:25;14.70;99.90
22850;DHT22;11591;44.792;10.358;2023-05-18T02:02:51;14.70;99.90
22850;DHT22;11591;44.792;10.358;2023-05-18T02:05:17;14.70;99.90
22850;DHT22;11591;44.792;10.358;2023-05-18T02:07:43;14.70;99.90
22850;DHT22;11591;44.792;10.358;2023-05-18T02:10:12;14.70;99.90
22850;DHT22;11591;44.792;10.358;2023-05-18T02:12:38;14.70;99.90
22850;DHT22;11591;44.792;10.358;2023-05-18T02:15:05;14.70;99.90
22850;DHT22;11591;44.792;10.358;2023-05-18T02:17:32;14.70;99.90
22850;DHT22;11591;44.792;10.358;2023-05-18T02:19:58;14.70;99.90
22850;DHT22;11591;44.792;10.358;2023-05-18T02:22:24;14.70;99.90
22850;DHT22;11591;44.792;10.358;2023-05-18T02:24:50;14.60;99.90
22850;DHT22;11591;44.792;10.358;2023-05-18T02:27:16;14.60;99.90
22850;DHT22;11591;44.792;10.358;2023-05-18T02:29:42;14.60;99.90
22850;DHT22;11591;44.792;10.358;2023-05-18T02:32:08;14.60;99.90
22850;DHT22;11591;44.792;10.358;2023-05-18T02:34:33;14.60;99.90
22850;DHT22;11591;44.792;10.358;2023-05-18T02:37:03;14.50;99.90
22850;DHT22;11591;44.792;10.358;2023-05-18T02:39:29;14.60;99.90
22850;DHT22;11591;44.792;10.358;2023-05-18T02:41:55;14.60;99.90
22850;DHT22;11591;44.792;10.358;2023-05-18T02:44:21;14.50;99.90
22850;DHT22;11591;44.792;10.358;2023-05-18T02:46:47;14.60;99.90
22850;DHT22;11591;44.792;10.358;2023-05-18T02:49:13;14.60;99.90
22850;DHT22;11591;44.792;10.358;2023-05-18T02:51:40;14.60;99.90
22850;DHT22;11591;44.792;10.358;2023-05-18T02:54:06;14.50;99.90
22850;DHT22;11591;44.792;10.358;2023-05-18T02:56:34;14.50;99.90
22850;DHT22;11591;44.792;10.358;2023-05-18T02:59:08;14.50;99.90
22850;DHT22;11591;44.792;10.358;2023-05-18T03:01:37;14.50;99.90
22850;DHT22;11591;44.792;10.358;2023-05-18T03:04:03;14.60;99.90
22850;DHT22;11591;44.792;10.358;2023-05-18T03:06:29;14.50;99.90
22850;DHT22;11591;44.792;10.358;2023-05-18T03:08:56;14.60;99.90
22850;DHT22;11591;44.792;10.358;2023-05-18T03:11:28;14.50;99.90
22850;DHT22;11591;44.792;10.358;2023-05-18T03:13:54;14.50;99.90
22850;DHT22;11591;44.792;10.358;2023-05-18T03:16:20;14.60;99.90
22850;DHT22;11591;44.792;10.358;2023-05-18T03:18:46;14.50;99.90
22850;DHT22;11591;44.792;10.358;2023-05-18T03:21:12;14.50;99.90
22850;DHT22;11591;44.792;10.358;2023-05-18T03:23:41;14.50;99.90
22850;DHT22;11591;44.792;10.358;2023-05-18T03:26:06;14.50;99.90
22850;DHT22;11591;44.792;10.358;2023-05-18T03:28:39;14.50;99.90
22850;DHT22;11591;44.792;10.358;2023-05-18T03:31:05;14.50;99.90
22850;DHT22;11591;44.792;10.358;2023-05-18T03:33:31;14.50;99.90
22850;DHT22;11591;44.792;10.358;2023-05-18T03:36:03;14.40;99.90
22850;DHT22;11591;44.792;10.358;2023-05-18T03:38:30;14.40;99.90
22850;DHT22;11591;44.792;10.358;2023-05-18T03:41:02;14.40;99.90
22850;DHT22;11591;44.792;10.358;2023-05-18T03:43:27;14.40;99.90
22850;DHT22;11591;44.792;10.358;2023-05-18T03:45:57;14.30;99.90
22850;DHT22;11591;44.792;10.358;2023-05-18T03:48:23;14.30;99.90
22850;DHT22;11591;44.792;10.358;2023-05-18T03:50:49;14.40;99.90
22850;DHT22;11591;44.792;10.358;2023-05-18T03:53:15;14.40;99.90
22850;DHT22;11591;44.792;10.358;2023-05-18T03:55:47;14.40;99.90
22850;DHT22;11591;44.792;10.358;2023-05-18T03:58:16;14.50;99.90
22850;DHT22;11591;44.792;10.358;2023-05-18T04:00:46;14.50;99.90
22850;DHT22;11591;44.792;10.358;2023-05-18T04:03:12;14.50;99.90
22850;DHT22;11591;44.792;10.358;2023-05-18T04:05:40;14.50;99.90
22850;DHT22;11591;44.792;10.358;2023-05-18T04:08:08;14.50;99.90
22850;DHT22;11591;44.792;10.358;2023-05-18T04:10:35;14.50;99.90
22850;DHT22;11591;44.792;10.358;2023-05-18T04:13:01;14.50;99.90
22850;DHT22;11591;44.792;10.358;2023-05-18T04:15:26;14.50;99.90
22850;DHT22;11591;44.792;10.358;2023-05-18T04:17:54;14.50;99.90
22850;DHT22;11591;44.792;10.358;2023-05-18T04:20:20;14.40;99.90
22850;DHT22;11591;44.792;10.358;2023-05-18T04:22:46;14.40;99.90
22850;DHT22;11591;44.792;10.358;2023-05-18T04:25:16;14.40;99.90
22850;DHT22;11591;44.792;10.358;2023-05-18T04:27:43;14.40;99.90
22850;DHT22;11591;44.792;10.358;2023-05-18T04:30:11;14.30;99.90
22850;DHT22;11591;44.792;10.358;2023-05-18T04:32:39;14.30;99.90
22850;DHT22;11591;44.792;10.358;2023-05-18T04:35:07;14.30;99.90
22850;DHT22;11591;44.792;10.358;2023-05-18T04:37:33;14.30;99.90
22850;DHT22;11591;44.792;10.358;2023-05-18T04:40:01;14.30;99.90
22850;DHT22;11591;44.792;10.358;2023-05-18T04:42:33;14.30;99.90
22850;DHT22;11591;44.792;10.358;2023-05-18T04:45:00;14.30;99.90
22850;DHT22;11591;44.792;10.358;2023-05-18T04:47:28;14.30;99.90
22850;DHT22;11591;44.792;10.358;2023-05-18T04:49:55;14.30;99.90
22850;DHT22;11591;44.792;10.358;2023-05-18T04:52:21;14.30;99.90
22850;DHT22;11591;44.792;10.358;2023-05-18T04:54:47;14.30;99.90
22850;DHT22;11591;44.792;10.358;2023-05-18T04:57:13;14.40;99.90
22850;DHT22;11591;44.792;10.358;2023-05-18T04:59:39;14.40;99.90
22850;DHT22;11591;44.792;10.358;2023-05-18T05:02:07;14.40;99.90
22850;DHT22;11591;44.792;10.358;2023-05-18T05:04:33;14.40;99.90
22850;DHT22;11591;44.792;10.358;2023-05-18T05:06:58;14.40;99.90
22850;DHT22;11591;44.792;10.358;2023-05-18T05:09:24;14.50;99.90
22850;DHT22;11591;44.792;10.358;2023-05-18T05:11:50;14.50;99.90
22850;DHT22;11591;44.792;10.358;2023-05-18T05:14:16;14.60;99.90
22850;DHT22;11591;44.792;10.358;2023-05-18T05:16:42;14.60;99.90
22850;DHT22;11591;44.792;10.358;2023-05-18T05:19:07;14.60;99.90
22850;DHT22;11591;44.792;10.358;2023-05-18T05:21:33;14.60;99.90
22850;DHT22;11591;44.792;10.358;2023-05-18T05:24:01;14.60;99.90
22850;DHT22;11591;44.792;10.358;2023-05-18T05:26:30;14.70;99.90
22850;DHT22;11591;44.792;10.358;2023-05-18T05:28:55;14.70;99.90
22850;DHT22;11591;44.792;10.358;2023-05-18T05:31:22;14.70;99.90
22850;DHT22;11591;44.792;10.358;2023-05-18T05:33:47;14.70;99.90
22850;DHT22;11591;44.792;10.358;2023-05-18T05:36:13;14.70;99.90
22850;DHT22;11591;44.792;10.358;2023-05-18T05:38:39;14.60;99.90
22850;DHT22;11591;44.792;10.358;2023-05-18T05:41:05;14.70;99.90
22850;DHT22;11591;44.792;10.358;2023-05-18T05:43:33;14.70;99.90
22850;DHT22;11591;44.792;10.358;2023-05-18T05:45:58;14.70;99.90
22850;DHT22;11591;44.792;10.358;2023-05-18T05:48:24;14.80;99.90
22850;DHT22;11591;44.792;10.358;2023-05-18T05:50:50;14.80;99.90
22850;DHT22;11591;44.792;10.358;2023-05-18T05:53:16;14.80;99.90
22850;DHT22;11591;44.792;10.358;2023-05-18T05:55:44;14.80;99.90
22850;DHT22;11591;44.792;10.358;2023-05-18T05:58:15;14.90;99.90
22850;DHT22;11591;44.792;10.358;2023-05-18T06:00:45;14.90;99.90
22850;DHT22;11591;44.792;10.358;2023-05-18T06:03:11;15.00;99.90
22850;DHT22;11591;44.792;10.358;2023-05-18T06:05:43;15.00;99.90
22850;DHT22;11591;44.792;10.358;2023-05-18T06:08:11;15.10;99.90
22850;DHT22;11591;44.792;10.358;2023-05-18T06:10:37;15.10;99.90
22850;DHT22;11591;44.792;10.358;2023-05-18T06:13:04;15.20;99.90
22850;DHT22;11591;44.792;10.358;2023-05-18T06:15:38;15.20;99.90
22850;DHT22;11591;44.792;10.358;2023-05-18T06:18:04;15.20;99.90
22850;DHT22;11591;44.792;10.358;2023-05-18T06:20:30;15.20;99.90
22850;DHT22;11591;44.792;10.358;2023-05-18T06:22:56;15.30;99.90
22850;DHT22;11591;44.792;10.358;2023-05-18T06:25:34;15.30;99.90
22850;DHT22;11591;44.792;10.358;2023-05-18T06:28:25;15.40;99.90
22850;DHT22;11591;44.792;10.358;2023-05-18T06:30:58;15.40;99.90
22850;DHT22;11591;44.792;10.358;2023-05-18T06:33:36;15.50;99.90
22850;DHT22;11591;44.792;10.358;2023-05-18T06:36:03;15.50;99.90
22850;DHT22;11591;44.792;10.358;2023-05-18T06:38:29;15.50;99.90
22850;DHT22;11591;44.792;10.358;2023-05-18T06:40:54;15.60;99.90
22850;DHT22;11591;44.792;10.358;2023-05-18T06:43:20;15.60;99.90
22850;DHT22;11591;44.792;10.358;2023-05-18T06:46:02;15.60;99.90
22850;DHT22;11591;44.792;10.358;2023-05-18T06:48:38;15.70;99.90
22850;DHT22;11591;44.792;10.358;2023-05-18T06:51:05;15.70;99.90
22850;DHT22;11591;44.792;10.358;2023-05-18T06:53:32;15.80;99.90
22850;DHT22;11591;44.792;10.358;2023-05-18T06:55:58;15.80;99.90
22850;DHT22;11591;44.792;10.358;2023-05-18T06:58:24;15.90;99.90
22850;DHT22;11591;44.792;10.358;2023-05-18T07:00:50;15.90;99.90
22850;DHT22;11591;44.792;10.358;2023-05-18T07:03:16;15.80;99.90
22850;DHT22;11591;44.792;10.358;2023-05-18T07:05:42;15.90;99.90
22850;DHT22;11591;44.792;10.358;2023-05-18T07:08:08;15.90;99.90
22850;DHT22;11591;44.792;10.358;2023-05-18T07:10:34;15.90;99.90
22850;DHT22;11591;44.792;10.358;2023-05-18T07:13:00;16.00;99.90
22850;DHT22;11591;44.792;10.358;2023-05-18T07:15:26;16.00;99.90
22850;DHT22;11591;44.792;10.358;2023-05-18T07:17:51;16.00;99.90
22850;DHT22;11591;44.792;10.358;2023-05-18T07:20:17;16.10;99.90
22850;DHT22;11591;44.792;10.358;2023-05-18T07:22:43;16.10;99.90
22850;DHT22;11591;44.792;10.358;2023-05-18T07:25:09;16.10;99.90
22850;DHT22;11591;44.792;10.358;2023-05-18T07:27:35;16.20;99.90
22850;DHT22;11591;44.792;10.358;2023-05-18T07:30:00;16.20;99.90
22850;DHT22;11591;44.792;10.358;2023-05-18T07:32:26;16.20;99.90
22850;DHT22;11591;44.792;10.358;2023-05-18T07:34:52;16.20;99.90
22850;DHT22;11591;44.792;10.358;2023-05-18T07:37:18;16.30;99.90
22850;DHT22;11591;44.792;10.358;2023-05-18T07:39:43;16.30;99.90
22850;DHT22;11591;44.792;10.358;2023-05-18T07:42:09;16.40;99.90
22850;DHT22;11591;44.792;10.358;2023-05-18T07:44:35;16.40;99.90
22850;DHT22;11591;44.792;10.358;2023-05-18T07:47:01;16.40;99.90
22850;DHT22;11591;44.792;10.358;2023-05-18T07:49:27;16.40;99.90
22850;DHT22;11591;44.792;10.358;2023-05-18T07:51:53;16.50;99.90
22850;DHT22;11591;44.792;10.358;2023-05-18T07:54:18;16.50;99.90
22850;DHT22;11591;44.792;10.358;2023-05-18T07:56:44;16.50;99.90
22850;DHT22;11591;44.792;10.358;2023-05-18T07:59:11;16.50;99.90
22850;DHT22;11591;44.792;10.358;2023-05-18T08:01:36;16.60;99.90
22850;DHT22;11591;44.792;10.358;2023-05-18T08:04:03;16.70;99.90
22850;DHT22;11591;44.792;10.358;2023-05-18T08:06:29;16.70;99.90
22850;DHT22;11591;44.792;10.358;2023-05-18T08:08:56;16.70;99.90
22850;DHT22;11591;44.792;10.358;2023-05-18T08:11:22;16.70;99.90
22850;DHT22;11591;44.792;10.358;2023-05-18T08:13:48;16.80;99.90
22850;DHT22;11591;44.792;10.358;2023-05-18T08:16:14;16.80;99.90
22850;DHT22;11591;44.792;10.358;2023-05-18T08:18:40;16.90;99.90
22850;DHT22;11591;44.792;10.358;2023-05-18T08:21:07;16.90;99.90
22850;DHT22;11591;44.792;10.358;2023-05-18T08:23:37;17.00;99.90
22850;DHT22;11591;44.792;10.358;2023-05-18T08:26:03;17.00;99.90
22850;DHT22;11591;44.792;10.358;2023-05-18T08:28:30;17.10;99.90
22850;DHT22;11591;44.792;10.358;2023-05-18T08:30:56;17.10;99.90
22850;DHT22;11591;44.792;10.358;2023-05-18T08:33:22;17.20;99.90
22850;DHT22;11591;44.792;10.358;2023-05-18T08:35:48;17.30;99.90
22850;DHT22;11591;44.792;10.358;2023-05-18T08:38:14;17.20;99.90
22850;DHT22;11591;44.792;10.358;2023-05-18T08:41:02;17.30;99.90
22850;DHT22;11591;44.792;10.358;2023-05-18T08:43:30;17.20;99.90
22850;DHT22;11591;44.792;10.358;2023-05-18T08:46:10;17.30;99.90
22850;DHT22;11591;44.792;10.358;2023-05-18T08:48:38;17.20;99.90
22850;DHT22;11591;44.792;10.358;2023-05-18T08:51:05;17.20;99.90
22850;DHT22;11591;44.792;10.358;2023-05-18T08:53:34;17.30;99.90
22850;DHT22;11591;44.792;10.358;2023-05-18T08:56:02;17.20;99.90
22850;DHT22;11591;44.792;10.358;2023-05-18T08:58:36;17.20;99.90
22850;DHT22;11591;44.792;10.358;2023-05-18T09:01:06;17.20;99.90
22850;DHT22;11591;44.792;10.358;2023-05-18T09:03:33;17.20;99.90
22850;DHT22;11591;44.792;10.358;2023-05-18T09:05:59;17.20;99.90
22850;DHT22;11591;44.792;10.358;2023-05-18T09:08:27;17.20;99.90
22850;DHT22;11591;44.792;10.358;2023-05-18T09:10:56;17.30;99.90
22850;DHT22;11591;44.792;10.358;2023-05-18T09:13:22;17.30;99.90
22850;DHT22;11591;44.792;10.358;2023-05-18T09:15:48;17.40;99.90
22850;DHT22;11591;44.792;10.358;2023-05-18T09:18:15;17.40;99.90
22850;DHT22;11591;44.792;10.358;2023-05-18T09:20:41;17.40;99.90
22850;DHT22;11591;44.792;10.358;2023-05-18T09:23:07;17.40;99.90
22850;DHT22;11591;44.792;10.358;2023-05-18T09:25:33;17.40;99.90
22850;DHT22;11591;44.792;10.358;2023-05-18T09:28:02;17.40;99.90
22850;DHT22;11591;44.792;10.358;2023-05-18T09:30:28;17.50;99.90
22850;DHT22;11591;44.792;10.358;2023-05-18T09:32:54;17.50;99.90
22850;DHT22;11591;44.792;10.358;2023-05-18T09:35:23;17.60;99.90
22850;DHT22;11591;44.792;10.358;2023-05-18T09:37:49;17.60;99.90
22850;DHT22;11591;44.792;10.358;2023-05-18T09:40:17;17.70;99.90
22850;DHT22;11591;44.792;10.358;2023-05-18T09:42:45;17.70;99.90
22850;DHT22;11591;44.792;10.358;2023-05-18T09:45:18;17.80;99.90
22850;DHT22;11591;44.792;10.358;2023-05-18T09:47:44;17.90;99.90
22850;DHT22;11591;44.792;10.358;2023-05-18T09:50:10;17.90;99.90
22850;DHT22;11591;44.792;10.358;2023-05-18T09:52:45;18.00;99.90
22850;DHT22;11591;44.792;10.358;2023-05-18T09:55:20;18.00;99.90
22850;DHT22;11591;44.792;10.358;2023-05-18T09:57:48;18.00;99.90
22850;DHT22;11591;44.792;10.358;2023-05-18T10:00:14;18.10;99.90
22850;DHT22;11591;44.792;10.358;2023-05-18T10:02:42;18.10;99.90
22850;DHT22;11591;44.792;10.358;2023-05-18T10:05:25;18.20;99.90
22850;DHT22;11591;44.792;10.358;2023-05-18T10:07:53;18.20;99.90
22850;DHT22;11591;44.792;10.358;2023-05-18T10:10:22;18.20;99.90
22850;DHT22;11591;44.792;10.358;2023-05-18T10:12:52;18.20;99.90
22850;DHT22;11591;44.792;10.358;2023-05-18T10:15:20;18.20;99.90
22850;DHT22;11591;44.792;10.358;2023-05-18T10:17:47;18.30;99.90
22850;DHT22;11591;44.792;10.358;2023-05-18T10:20:17;18.30;99.90
22850;DHT22;11591;44.792;10.358;2023-05-18T10:22:46;18.40;99.90
22850;DHT22;11591;44.792;10.358;2023-05-18T10:25:17;18.40;99.90
22850;DHT22;11591;44.792;10.358;2023-05-18T10:27:43;18.40;99.90
22850;DHT22;11591;44.792;10.358;2023-05-18T10:30:13;18.40;99.90
22850;DHT22;11591;44.792;10.358;2023-05-18T10:32:39;18.50;99.90
22850;DHT22;11591;44.792;10.358;2023-05-18T10:35:07;18.50;99.90
22850;DHT22;11591;44.792;10.358;2023-05-18T10:37:34;18.50;99.90
22850;DHT22;11591;44.792;10.358;2023-05-18T10:40:02;18.50;99.90
22850;DHT22;11591;44.792;10.358;2023-05-18T10:42:32;18.60;99.90
22850;DHT22;11591;44.792;10.358;2023-05-18T10:44:59;18.60;99.90
22850;DHT22;11591;44.792;10.358;2023-05-18T10:47:29;18.60;99.90
22850;DHT22;11591;44.792;10.358;2023-05-18T10:49:58;18.70;99.90
22850;DHT22;11591;44.792;10.358;2023-05-18T10:52:26;18.70;99.90
22850;DHT22;11591;44.792;10.358;2023-05-18T10:54:57;18.80;99.90
22850;DHT22;11591;44.792;10.358;2023-05-18T10:57:28;18.90;99.90
22850;DHT22;11591;44.792;10.358;2023-05-18T10:59:56;18.90;99.90
22850;DHT22;11591;44.792;10.358;2023-05-18T11:02:23;18.80;99.90
22850;DHT22;11591;44.792;10.358;2023-05-18T11:04:52;18.80;99.90
22850;DHT22;11591;44.792;10.358;2023-05-18T11:07:19;18.80;99.90
22850;DHT22;11591;44.792;10.358;2023-05-18T11:09:47;18.80;99.90
22850;DHT22;11591;44.792;10.358;2023-05-18T11:12:15;18.80;99.90
22850;DHT22;11591;44.792;10.358;2023-05-18T11:14:53;18.80;99.90
22850;DHT22;11591;44.792;10.358;2023-05-18T11:17:21;18.80;99.90
22850;DHT22;11591;44.792;10.358;2023-05-18T11:22:45;19.00;99.90
22850;DHT22;11591;44.792;10.358;2023-05-18T11:30:44;19.20;99.90
22850;DHT22;11591;44.792;10.358;2023-05-18T11:33:11;19.20;99.90
22850;DHT22;11591;44.792;10.358;2023-05-18T11:38:22;19.30;99.90
22850;DHT22;11591;44.792;10.358;2023-05-18T11:40:49;19.50;99.90
22850;DHT22;11591;44.792;10.358;2023-05-18T11:43:24;19.50;99.90
22850;DHT22;11591;44.792;10.358;2023-05-18T11:45:51;19.60;99.90
22850;DHT22;11591;44.792;10.358;2023-05-18T11:48:20;19.70;99.90
22850;DHT22;11591;44.792;10.358;2023-05-18T11:50:47;19.70;99.90
22850;DHT22;11591;44.792;10.358;2023-05-18T11:53:17;19.80;99.90
22850;DHT22;11591;44.792;10.358;2023-05-18T11:55:43;19.90;99.90
22850;DHT22;11591;44.792;10.358;2023-05-18T11:58:10;20.00;99.90
22850;DHT22;11591;44.792;10.358;2023-05-18T12:00:39;20.00;99.90
22850;DHT22;11591;44.792;10.358;2023-05-18T12:03:06;20.00;99.90
22850;DHT22;11591;44.792;10.358;2023-05-18T12:05:34;20.00;99.90
22850;DHT22;11591;44.792;10.358;2023-05-18T12:08:00;20.00;99.90
22850;DHT22;11591;44.792;10.358;2023-05-18T12:10:27;20.00;99.90
22850;DHT22;11591;44.792;10.358;2023-05-18T12:12:54;20.00;99.90
22850;DHT22;11591;44.792;10.358;2023-05-18T12:15:22;20.00;99.90
22850;DHT22;11591;44.792;10.358;2023-05-18T12:17:49;20.10;99.90
22850;DHT22;11591;44.792;10.358;2023-05-18T12:20:17;20.10;99.90
22850;DHT22;11591;44.792;10.358;2023-05-18T12:22:47;20.20;99.90
22850;DHT22;11591;44.792;10.358;2023-05-18T12:25:20;20.30;99.90
22850;DHT22;11591;44.792;10.358;2023-05-18T12:27:48;20.40;99.90
22850;DHT22;11591;44.792;10.358;2023-05-18T12:32:48;20.30;99.90
22850;DHT22;11591;44.792;10.358;2023-05-18T12:35:15;20.20;99.90
22850;DHT22;11591;44.792;10.358;2023-05-18T12:37:45;20.20;99.90
22850;DHT22;11591;44.792;10.358;2023-05-18T12:40:12;20.20;99.90
22850;DHT22;11591;44.792;10.358;2023-05-18T12:42:38;20.20;99.90
22850;DHT22;11591;44.792;10.358;2023-05-18T12:45:05;20.30;99.90
22850;DHT22;11591;44.792;10.358;2023-05-18T12:47:32;20.30;99.90
22850;DHT22;11591;44.792;10.358;2023-05-18T12:50:05;20.30;99.90
22850;DHT22;11591;44.792;10.358;2023-05-18T12:52:31;20.30;99.90
22850;DHT22;11591;44.792;10.358;2023-05-18T12:54:57;20.30;99.90
22850;DHT22;11591;44.792;10.358;2023-05-18T12:57:25;20.40;99.90
22850;DHT22;11591;44.792;10.358;2023-05-18T12:59:52;20.40;99.90
22850;DHT22;11591;44.792;10.358;2023-05-18T13:02:37;20.50;99.90
22850;DHT22;11591;44.792;10.358;2023-05-18T13:05:07;20.60;99.90
22850;DHT22;11591;44.792;10.358;2023-05-18T13:07:43;20.70;99.90
22850;DHT22;11591;44.792;10.358;2023-05-18T13:10:11;20.70;99.90
22850;DHT22;11591;44.792;10.358;2023-05-18T13:12:58;20.80;99.90
22850;DHT22;11591;44.792;10.358;2023-05-18T13:15:32;20.90;99.90
22850;DHT22;11591;44.792;10.358;2023-05-18T13:18:08;20.90;99.90
22850;DHT22;11591;44.792;10.358;2023-05-18T13:20:38;20.90;99.90
22850;DHT22;11591;44.792;10.358;2023-05-18T13:23:07;20.90;99.90
22850;DHT22;11591;44.792;10.358;2023-05-18T13:25:33;20.90;99.90
22850;DHT22;11591;44.792;10.358;2023-05-18T13:28:00;20.90;99.90
22850;DHT22;11591;44.792;10.358;2023-05-18T13:30:26;20.90;99.90
22850;DHT22;11591;44.792;10.358;2023-05-18T13:32:52;21.00;99.90
22850;DHT22;11591;44.792;10.358;2023-05-18T13:35:18;21.00;99.90
22850;DHT22;11591;44.792;10.358;2023-05-18T13:37:45;21.00;99.90
22850;DHT22;11591;44.792;10.358;2023-05-18T13:40:17;21.00;99.90
22850;DHT22;11591;44.792;10.358;2023-05-18T13:42:43;21.00;99.90
22850;DHT22;11591;44.792;10.358;2023-05-18T13:45:10;21.10;99.90
22850;DHT22;11591;44.792;10.358;2023-05-18T13:47:37;21.10;99.90
22850;DHT22;11591;44.792;10.358;2023-05-18T13:50:07;21.20;99.90
22850;DHT22;11591;44.792;10.358;2023-05-18T13:52:33;21.20;99.90
22850;DHT22;11591;44.792;10.358;2023-05-18T13:55:00;21.20;99.90
22850;DHT22;11591;44.792;10.358;2023-05-18T13:57:26;21.10;99.90
22850;DHT22;11591;44.792;10.358;2023-05-18T13:59:52;21.20;99.90
22850;DHT22;11591;44.792;10.358;2023-05-18T14:02:18;21.20;99.90
22850;DHT22;11591;44.792;10.358;2023-05-18T14:04:44;21.20;99.90
22850;DHT22;11591;44.792;10.358;2023-05-18T14:07:10;21.30;99.90
22850;DHT22;11591;44.792;10.358;2023-05-18T14:09:35;21.30;99.90
22850;DHT22;11591;44.792;10.358;2023-05-18T14:12:02;21.40;99.90
22850;DHT22;11591;44.792;10.358;2023-05-18T14:14:29;21.40;99.90
22850;DHT22;11591;44.792;10.358;2023-05-18T14:16:55;21.50;99.90
22850;DHT22;11591;44.792;10.358;2023-05-18T14:19:21;21.40;99.90
22850;DHT22;11591;44.792;10.358;2023-05-18T14:21:47;21.40;99.90
22850;DHT22;11591;44.792;10.358;2023-05-18T14:24:12;21.50;99.90
22850;DHT22;11591;44.792;10.358;2023-05-18T14:26:40;21.50;99.90
22850;DHT22;11591;44.792;10.358;2023-05-18T14:29:06;21.60;99.90
22850;DHT22;11591;44.792;10.358;2023-05-18T14:31:32;21.80;99.90
22850;DHT22;11591;44.792;10.358;2023-05-18T14:33:57;21.90;99.90
22850;DHT22;11591;44.792;10.358;2023-05-18T14:36:23;22.00;99.90
22850;DHT22;11591;44.792;10.358;2023-05-18T14:38:49;22.10;99.90
22850;DHT22;11591;44.792;10.358;2023-05-18T14:41:15;22.20;99.90
22850;DHT22;11591;44.792;10.358;2023-05-18T14:43:41;22.40;99.90
22850;DHT22;11591;44.792;10.358;2023-05-18T14:46:07;22.60;99.90
22850;DHT22;11591;44.792;10.358;2023-05-18T14:48:32;22.80;99.90
22850;DHT22;11591;44.792;10.358;2023-05-18T14:50:58;22.90;99.90
22850;DHT22;11591;44.792;10.358;2023-05-18T14:53:24;22.80;99.90
22850;DHT22;11591;44.792;10.358;2023-05-18T14:55:50;22.80;99.90
22850;DHT22;11591;44.792;10.358;2023-05-18T14:58:16;22.80;99.90
22850;DHT22;11591;44.792;10.358;2023-05-18T15:00:42;22.90;99.90
22850;DHT22;11591;44.792;10.358;2023-05-18T15:03:08;22.90;99.90
22850;DHT22;11591;44.792;10.358;2023-05-18T15:05:34;23.00;99.90
22850;DHT22;11591;44.792;10.358;2023-05-18T15:08:00;23.10;99.90
22850;DHT22;11591;44.792;10.358;2023-05-18T15:10:26;23.20;99.90
22850;DHT22;11591;44.792;10.358;2023-05-18T15:12:51;23.20;99.90
22850;DHT22;11591;44.792;10.358;2023-05-18T15:15:17;23.30;99.90
22850;DHT22;11591;44.792;10.358;2023-05-18T15:17:43;23.30;99.90
22850;DHT22;11591;44.792;10.358;2023-05-18T15:20:09;23.50;99.90
22850;DHT22;11591;44.792;10.358;2023-05-18T15:22:35;23.70;99.90
22850;DHT22;11591;44.792;10.358;2023-05-18T15:25:06;24.00;99.90
22850;DHT22;11591;44.792;10.358;2023-05-18T15:27:32;24.30;99.90
22850;DHT22;11591;44.792;10.358;2023-05-18T15:29:58;24.60;99.90
22850;DHT22;11591;44.792;10.358;2023-05-18T15:32:24;24.90;99.90
22850;DHT22;11591;44.792;10.358;2023-05-18T15:34:50;25.20;99.90
22850;DHT22;11591;44.792;10.358;2023-05-18T15:37:17;25.30;99.90
22850;DHT22;11591;44.792;10.358;2023-05-18T15:39:43;25.40;99.90
22850;DHT22;11591;44.792;10.358;2023-05-18T15:42:09;25.50;99.90